KBFM/BFM METAR and TAF weather

Enter ICAO airport designator
Station Type Date Time Source
KBFM METAR 2019/06/26 17:53 UTC NOAA

KBFM 261753Z 10004KT 10SM CLR 33/23 A3018 RMK AO2 SLP221 T03280228 10328 20239 56009


Station Type Date Time Source
KBFM Decoded METAR 2019/06/26 17:53 UTC NOAA

MOBILE DOWNTOWN AIRPORT, AL, United States (KBFM) 30-38N 88-04W 20M
Jun 26, 2019 - 01:53 PM EDT / 2019.06.26 1753 UTC
Wind: from the E (100 degrees) at 5 MPH (4 KT):0
Visibility: 10 mile(s):0
Sky conditions: clear
Temperature: 91.0 F (32.8 C)
Heat index: 99.1 F (37.3 C):1
Dew Point: 73.0 F (22.8 C)
Relative Humidity: 55%
Pressure (altimeter): 30.18 in. Hg (1022 hPa)
Pressure tendency: 0.03 inches (0.9 hPa) lower than three hours ago
ob: KBFM 261753Z 10004KT 10SM CLR 33/23 A3018 RMK AO2 SLP221 T03280228 10328 20239 56009
cycle: 18

Station Type Date Time Source
KBFM TAF 2019/06/26 18:30 UTC NOAA

TAF KBFM 261728Z 2618/2718 VRB03KT P6SM FEW150 BKN250
FM262100 15006KT P6SM VCTS SCT050CB BKN150
FM270300 34005KT P6SM BKN250

Example: see airport list